createdAt,value
2023-04-16T00:01:58.619Z,37.88
2023-04-16T00:04:25.540Z,37.47
2023-04-16T00:06:52.261Z,36.28
2023-04-16T00:09:19.559Z,34.45
2023-04-16T00:11:46.225Z,34.65
2023-04-16T00:14:12.890Z,35.67
2023-04-16T00:16:39.609Z,34.97
2023-04-16T00:19:06.981Z,34.88
2023-04-16T00:21:34.200Z,34.15
2023-04-16T00:24:00.920Z,36.13
2023-04-16T00:26:27.550Z,39.92
2023-04-16T00:28:54.204Z,37.67
2023-04-16T00:31:29.208Z,37.38
2023-04-16T00:33:56.173Z,34.55
2023-04-16T00:36:27.260Z,37.90
2023-04-16T00:38:54.759Z,34.40
2023-04-16T00:41:23.164Z,34.60
2023-04-16T00:43:50.152Z,37.88
2023-04-16T00:46:17.192Z,37.33
2023-04-16T00:48:44.388Z,39.22
2023-04-16T00:51:11.645Z,38.35
2023-04-16T00:53:38.353Z,35.22
2023-04-16T00:56:07.217Z,34.83
2023-04-16T00:58:35.162Z,32.25
2023-04-16T01:01:02.111Z,34.65
2023-04-16T01:03:39.752Z,35.97
2023-04-16T01:06:07.852Z,36.95
2023-04-16T01:08:34.492Z,38.22
2023-04-16T01:11:01.455Z,38.05
2023-04-16T01:13:28.109Z,37.05
2023-04-16T01:15:55.223Z,36.05
2023-04-16T01:18:23.126Z,35.58
2023-04-16T01:20:50.498Z,34.83
2023-04-16T01:23:18.715Z,34.30
2023-04-16T01:25:48.551Z,34.42
2023-04-16T01:28:15.929Z,34.47
2023-04-16T01:30:42.570Z,36.55
2023-04-16T01:33:11.535Z,35.72
2023-04-16T01:35:38.776Z,36.47
2023-04-16T01:38:06.403Z,33.30
2023-04-16T01:40:33.317Z,36.03
2023-04-16T01:42:59.944Z,36.05
2023-04-16T01:45:26.772Z,35.90
2023-04-16T01:47:53.519Z,36.78
2023-04-16T01:50:21.582Z,41.45
2023-04-16T01:52:48.247Z,36.50
2023-04-16T01:55:14.998Z,37.92
2023-04-16T01:57:41.747Z,34.58
2023-04-16T02:00:12.174Z,34.33
2023-04-16T02:02:42.095Z,35.30
2023-04-16T02:05:08.955Z,37.03
2023-04-16T02:07:35.818Z,35.83
2023-04-16T02:10:02.615Z,39.65
2023-04-16T02:12:30.386Z,36.55
2023-04-16T02:14:57.051Z,38.55
2023-04-16T02:17:23.732Z,37.40
2023-04-16T02:19:50.437Z,36.15
2023-04-16T02:22:17.390Z,38.88
2023-04-16T02:24:44.048Z,38.20
2023-04-16T02:27:10.702Z,38.53
2023-04-16T02:29:37.402Z,38.33
2023-04-16T02:32:10.720Z,35.55
2023-04-16T02:34:39.953Z,34.15
2023-04-16T02:37:06.563Z,33.38
2023-04-16T02:39:33.315Z,37.10
2023-04-16T02:42:01.558Z,36.72
2023-04-16T02:44:28.309Z,34.83
2023-04-16T02:46:54.959Z,39.22
2023-04-16T02:49:21.593Z,36.20
2023-04-16T02:51:48.182Z,37.30
2023-04-16T02:54:14.961Z,36.22
2023-04-16T02:56:41.632Z,36.60
2023-04-16T02:59:08.632Z,33.05
2023-04-16T03:01:35.472Z,34.38
2023-04-16T03:04:02.249Z,35.45
2023-04-16T03:06:31.531Z,34.03
2023-04-16T03:08:58.345Z,35.80
2023-04-16T03:11:25.035Z,34.45
2023-04-16T03:13:51.788Z,34.85
2023-04-16T03:16:18.516Z,33.13
2023-04-16T03:18:45.444Z,36.00
2023-04-16T03:21:13.758Z,34.60
2023-04-16T03:23:40.472Z,33.90
2023-04-16T03:26:07.153Z,34.70
2023-04-16T03:28:33.780Z,35.00
2023-04-16T03:31:00.795Z,32.97
2023-04-16T03:33:27.634Z,33.00
2023-04-16T03:35:58.177Z,31.83
2023-04-16T03:38:26.725Z,33.85
2023-04-16T03:40:53.507Z,35.08
2023-04-16T03:43:20.131Z,36.70
2023-04-16T03:45:47.528Z,34.25
2023-04-16T03:48:14.294Z,35.05
2023-04-16T03:50:41.358Z,33.97
2023-04-16T03:53:08.006Z,34.20
2023-04-16T03:55:35.438Z,29.13
2023-04-16T03:58:03.566Z,34.60
2023-04-16T04:00:30.823Z,32.80
2023-04-16T04:02:57.899Z,33.05
2023-04-16T04:05:24.807Z,33.20
2023-04-16T04:07:51.556Z,32.00
2023-04-16T04:10:18.280Z,33.17
2023-04-16T04:12:44.970Z,31.98
2023-04-16T04:15:11.955Z,32.75
2023-04-16T04:17:38.934Z,30.98
2023-04-16T04:20:06.477Z,32.10
2023-04-16T04:22:33.270Z,28.92
2023-04-16T04:24:59.945Z,29.30
2023-04-16T04:27:27.363Z,31.52
2023-04-16T04:29:54.082Z,30.83
2023-04-16T04:32:20.820Z,28.58
2023-04-16T04:34:47.415Z,28.88
2023-04-16T04:37:14.088Z,30.15
2023-04-16T04:39:40.719Z,28.35
2023-04-16T04:42:07.405Z,27.77
2023-04-16T04:44:34.077Z,31.73
2023-04-16T04:47:01.358Z,25.33
2023-04-16T04:49:28.158Z,28.55
2023-04-16T04:51:54.864Z,28.73
2023-04-16T04:54:21.490Z,26.08
2023-04-16T04:56:48.169Z,25.17
2023-04-16T04:59:15.144Z,25.25
2023-04-16T05:01:41.859Z,26.05
2023-04-16T05:04:08.733Z,23.85
2023-04-16T05:06:35.681Z,25.35
2023-04-16T05:09:02.323Z,25.02
2023-04-16T05:11:29.985Z,22.65
2023-04-16T05:13:57.058Z,24.83
2023-04-16T05:16:23.935Z,23.30
2023-04-16T05:18:50.664Z,24.10
2023-04-16T05:21:17.386Z,24.77
2023-04-16T05:23:44.039Z,25.23
2023-04-16T05:26:10.898Z,27.33
2023-04-16T05:28:37.494Z,24.60
2023-04-16T05:31:04.277Z,23.73
2023-04-16T05:33:31.008Z,22.58
2023-04-16T05:35:57.713Z,23.08
2023-04-16T05:38:24.451Z,25.58
2023-04-16T05:40:51.283Z,25.75
2023-04-16T05:43:18.401Z,23.60
2023-04-16T05:45:45.105Z,25.83
2023-04-16T05:48:12.492Z,24.27
2023-04-16T05:50:39.303Z,23.10
2023-04-16T05:53:08.116Z,23.65
2023-04-16T05:55:36.899Z,25.85
2023-04-16T05:58:06.371Z,24.50
2023-04-16T06:00:33.409Z,24.83
2023-04-16T06:03:00.278Z,23.20
2023-04-16T06:05:27.246Z,28.13
2023-04-16T06:07:53.935Z,27.30
2023-04-16T06:10:21.068Z,24.05
2023-04-16T06:12:47.786Z,27.63
2023-04-16T06:15:14.615Z,27.65
2023-04-16T06:17:42.574Z,24.45
2023-04-16T06:20:09.892Z,24.50
2023-04-16T06:22:36.633Z,25.10
2023-04-16T06:25:03.326Z,25.83
2023-04-16T06:27:31.392Z,25.05
2023-04-16T06:29:58.535Z,24.50
2023-04-16T06:32:25.812Z,23.40
2023-04-16T06:34:52.516Z,26.55
2023-04-16T06:37:19.168Z,22.52
2023-04-16T06:39:45.860Z,20.63
2023-04-16T06:42:12.537Z,26.50
2023-04-16T06:44:39.227Z,27.33
2023-04-16T06:47:06.029Z,31.98
2023-04-16T06:49:32.829Z,26.52
2023-04-16T06:51:59.536Z,24.75
2023-04-16T06:54:26.236Z,21.88
2023-04-16T06:56:53.150Z,21.95
2023-04-16T06:59:19.816Z,21.70
2023-04-16T07:01:46.480Z,22.42
2023-04-16T07:04:13.187Z,24.05
2023-04-16T07:06:39.853Z,22.63
2023-04-16T07:09:06.475Z,23.95
2023-04-16T07:11:35.999Z,22.30
2023-04-16T07:14:02.700Z,21.92
2023-04-16T07:16:29.525Z,23.42
2023-04-16T07:18:56.443Z,23.13
2023-04-16T07:21:23.069Z,20.63
2023-04-16T07:23:49.719Z,22.25
2023-04-16T07:26:16.342Z,24.42
2023-04-16T07:28:43.093Z,20.63
2023-04-16T07:31:09.821Z,23.98
2023-04-16T07:33:36.499Z,25.38
2023-04-16T07:36:03.144Z,26.23
2023-04-16T07:38:32.783Z,26.08
2023-04-16T07:40:59.435Z,25.05
2023-04-16T07:43:26.070Z,25.73
2023-04-16T07:45:52.725Z,26.88
2023-04-16T07:48:19.427Z,25.13
2023-04-16T07:50:46.208Z,25.52
2023-04-16T07:53:13.184Z,24.90
2023-04-16T07:55:39.804Z,24.15
2023-04-16T07:58:07.940Z,26.35
2023-04-16T08:00:34.574Z,27.88
2023-04-16T08:03:01.405Z,27.92
2023-04-16T08:05:28.345Z,30.45
2023-04-16T08:07:55.101Z,29.77
2023-04-16T08:10:21.949Z,26.95
2023-04-16T08:12:48.624Z,26.88
2023-04-16T08:15:15.830Z,29.58
2023-04-16T08:17:43.030Z,26.30
2023-04-16T08:20:12.189Z,29.40
2023-04-16T08:22:41.185Z,27.42
2023-04-16T08:25:08.592Z,27.58
2023-04-16T08:27:35.490Z,26.33
2023-04-16T08:30:05.532Z,29.45
2023-04-16T08:32:32.263Z,29.08
2023-04-16T08:34:59.211Z,27.65
2023-04-16T08:37:26.301Z,27.15
2023-04-16T08:39:53.249Z,25.23
2023-04-16T08:42:41.028Z,25.95
2023-04-16T08:45:09.679Z,30.38
2023-04-16T08:47:39.756Z,28.45
2023-04-16T08:50:07.042Z,29.50
2023-04-16T08:52:38.181Z,27.20
2023-04-16T08:55:10.107Z,26.95
2023-04-16T08:57:45.637Z,30.55
2023-04-16T09:00:12.678Z,26.98
2023-04-16T09:02:39.666Z,27.60
2023-04-16T09:05:07.960Z,26.35
2023-04-16T09:07:35.503Z,26.50
2023-04-16T09:10:02.321Z,26.80
2023-04-16T09:12:30.733Z,28.35
2023-04-16T09:14:59.853Z,29.38
2023-04-16T09:17:27.293Z,29.23
2023-04-16T09:19:54.986Z,28.67
2023-04-16T09:22:21.713Z,29.27
2023-04-16T09:24:48.482Z,26.67
2023-04-16T09:27:15.101Z,31.30
2023-04-16T09:29:42.180Z,27.27
2023-04-16T09:32:11.109Z,23.52
2023-04-16T09:34:59.732Z,27.77
2023-04-16T09:37:30.508Z,26.60
2023-04-16T09:39:58.077Z,24.17
2023-04-16T09:42:27.490Z,26.73
2023-04-16T09:44:55.000Z,28.65
2023-04-16T09:47:23.458Z,27.38
2023-04-16T09:49:50.510Z,28.50
2023-04-16T09:52:22.940Z,25.52
2023-04-16T09:54:54.023Z,27.55
2023-04-16T09:57:22.418Z,29.63
2023-04-16T09:59:53.085Z,29.60
2023-04-16T10:02:20.680Z,28.38
2023-04-16T10:04:51.936Z,32.20
2023-04-16T10:07:19.377Z,28.60
2023-04-16T10:09:48.672Z,29.58
2023-04-16T10:12:16.092Z,28.67
2023-04-16T10:14:43.067Z,29.77
2023-04-16T10:17:10.189Z,30.15
2023-04-16T10:19:37.302Z,28.80
2023-04-16T10:22:04.443Z,26.88
2023-04-16T10:24:32.560Z,24.85
2023-04-16T10:27:00.273Z,25.48
2023-04-16T10:29:28.408Z,26.52
2023-04-16T10:31:56.897Z,26.45
2023-04-16T10:34:24.886Z,25.15
2023-04-16T10:36:53.108Z,25.80
2023-04-16T10:39:23.582Z,27.35
2023-04-16T10:41:51.537Z,31.92
2023-04-16T10:44:19.769Z,31.50
2023-04-16T10:46:50.856Z,31.05
2023-04-16T10:49:19.267Z,32.25
2023-04-16T10:51:57.153Z,30.77
2023-04-16T10:54:26.113Z,32.05
2023-04-16T10:56:53.734Z,31.70
2023-04-16T10:59:22.306Z,33.83
2023-04-16T11:01:51.809Z,34.05
2023-04-16T11:04:21.643Z,33.45
2023-04-16T11:07:04.914Z,31.92
2023-04-16T11:09:50.661Z,33.40
2023-04-16T11:14:48.981Z,31.27
2023-04-16T11:17:16.312Z,35.75
2023-04-16T11:19:43.790Z,30.83
2023-04-16T11:22:13.504Z,30.83
2023-04-16T11:24:41.070Z,32.55
2023-04-16T11:27:08.553Z,32.17
2023-04-16T11:29:35.497Z,34.65
2023-04-16T11:32:02.266Z,36.10
2023-04-16T11:34:29.460Z,34.53
2023-04-16T11:36:56.431Z,30.98
2023-04-16T11:39:23.603Z,32.92
2023-04-16T11:41:52.441Z,33.83
2023-04-16T11:44:24.355Z,32.00
2023-04-16T11:46:52.462Z,34.22
2023-04-16T11:49:31.207Z,34.95
2023-04-16T11:51:58.672Z,31.67
2023-04-16T11:54:25.779Z,35.85
2023-04-16T11:56:53.403Z,32.75
2023-04-16T11:59:23.211Z,31.50
2023-04-16T12:01:56.276Z,32.40
2023-04-16T12:04:27.563Z,29.63
2023-04-16T12:07:12.018Z,29.50
2023-04-16T12:09:41.147Z,33.08
2023-04-16T12:12:31.176Z,30.23
2023-04-16T12:15:00.335Z,27.88
2023-04-16T12:17:27.045Z,31.30
2023-04-16T12:20:07.009Z,29.17
2023-04-16T12:22:37.422Z,28.00
2023-04-16T12:25:06.231Z,31.50
2023-04-16T12:27:50.085Z,32.20
2023-04-16T12:30:21.097Z,28.85
2023-04-16T12:32:49.113Z,28.10
2023-04-16T12:35:30.608Z,28.10
2023-04-16T12:37:57.575Z,33.13
2023-04-16T12:40:24.399Z,30.90
2023-04-16T12:42:51.390Z,28.60
2023-04-16T12:45:18.036Z,30.15
2023-04-16T12:47:44.877Z,30.23
2023-04-16T12:50:11.685Z,29.95
2023-04-16T12:52:38.374Z,30.27
2023-04-16T12:55:05.318Z,32.90
2023-04-16T12:57:32.069Z,25.65
2023-04-16T12:59:59.084Z,29.58
2023-04-16T13:02:26.208Z,30.65
2023-04-16T13:04:54.222Z,28.08
2023-04-16T13:07:21.431Z,32.42
2023-04-16T13:09:48.977Z,34.05
2023-04-16T13:12:15.782Z,31.52
2023-04-16T13:14:51.751Z,33.55
2023-04-16T13:17:18.449Z,32.40
2023-04-16T13:19:45.977Z,34.67
2023-04-16T13:22:12.704Z,28.50
2023-04-16T13:24:39.449Z,26.75
2023-04-16T13:27:08.457Z,30.55
2023-04-16T13:29:36.788Z,32.53
2023-04-16T13:32:03.963Z,32.88
2023-04-16T13:34:31.032Z,32.53
2023-04-16T13:36:57.671Z,36.78
2023-04-16T13:39:24.283Z,36.33
2023-04-16T13:41:51.552Z,36.85
2023-04-16T13:44:18.329Z,31.05
2023-04-16T13:46:47.830Z,31.20
2023-04-16T13:49:15.104Z,29.58
2023-04-16T13:51:44.978Z,29.58
2023-04-16T13:54:11.688Z,30.17
2023-04-16T13:56:38.311Z,28.48
2023-04-16T13:59:05.015Z,28.45
2023-04-16T14:01:31.658Z,29.55
2023-04-16T14:03:59.594Z,28.75
2023-04-16T14:06:27.174Z,25.08
2023-04-16T14:08:54.257Z,28.10
2023-04-16T14:11:21.213Z,28.33
2023-04-16T14:13:47.953Z,27.10
2023-04-16T14:16:14.670Z,28.30
2023-04-16T14:18:42.507Z,26.30
2023-04-16T14:21:09.576Z,25.33
2023-04-16T14:23:36.303Z,25.58
2023-04-16T14:26:03.675Z,26.05
2023-04-16T14:28:30.576Z,25.92
2023-04-16T14:30:57.249Z,25.42
2023-04-16T14:33:24.005Z,24.25
2023-04-16T14:35:51.473Z,24.98
2023-04-16T14:38:18.152Z,27.33
2023-04-16T14:40:44.854Z,26.77
2023-04-16T14:43:11.523Z,27.70
2023-04-16T14:45:38.510Z,27.30
2023-04-16T14:48:06.373Z,25.67
2023-04-16T14:50:37.994Z,25.95
2023-04-16T14:53:05.742Z,27.83
2023-04-16T14:56:05.562Z,28.02
2023-04-16T14:58:23.974Z,25.58
2023-04-16T15:00:51.494Z,29.73
2023-04-16T15:03:21.341Z,28.75
2023-04-16T15:06:24.223Z,29.33
2023-04-16T15:08:59.457Z,28.15
2023-04-16T15:13:53.914Z,29.58
2023-04-16T15:16:20.802Z,29.50
2023-04-16T15:18:47.952Z,31.08
2023-04-16T15:21:14.867Z,31.17
2023-04-16T15:23:41.784Z,31.38
2023-04-16T15:26:08.469Z,33.80
2023-04-16T15:28:35.174Z,31.05
2023-04-16T15:31:01.895Z,35.88
2023-04-16T15:33:28.609Z,35.03
2023-04-16T15:35:55.213Z,37.13
2023-04-16T15:38:21.831Z,36.05
2023-04-16T15:40:48.593Z,31.77
2023-04-16T15:43:16.057Z,35.45
2023-04-16T15:45:42.614Z,36.40
2023-04-16T15:48:09.339Z,35.63
2023-04-16T15:50:36.248Z,35.90
2023-04-16T15:53:03.489Z,36.72
2023-04-16T15:55:30.177Z,35.50
2023-04-16T15:57:57.014Z,37.05
2023-04-16T16:00:24.086Z,31.95
2023-04-16T16:02:50.912Z,36.10
2023-04-16T16:05:17.750Z,32.47
2023-04-16T16:07:44.995Z,34.92
2023-04-16T16:10:13.352Z,33.58
2023-04-16T16:12:41.285Z,36.20
2023-04-16T16:15:08.422Z,35.00
2023-04-16T16:17:35.193Z,35.58
2023-04-16T16:20:02.222Z,32.60
2023-04-16T16:22:29.964Z,31.00
2023-04-16T16:24:57.790Z,34.17
2023-04-16T16:27:24.623Z,33.45
2023-04-16T16:29:51.306Z,35.30
2023-04-16T16:32:18.048Z,35.55
2023-04-16T16:34:44.728Z,34.92
2023-04-16T16:37:11.336Z,38.83
2023-04-16T16:39:38.897Z,38.00
2023-04-16T16:42:06.054Z,34.10
2023-04-16T16:44:33.096Z,34.58
2023-04-16T16:46:59.927Z,36.25
2023-04-16T16:49:27.344Z,33.50
2023-04-16T16:51:53.931Z,32.35
2023-04-16T16:54:20.954Z,34.05
2023-04-16T16:56:47.667Z,29.70
2023-04-16T16:59:14.449Z,33.78
2023-04-16T17:01:41.271Z,30.88
2023-04-16T17:04:08.178Z,30.33
2023-04-16T17:06:35.026Z,30.10
2023-04-16T17:09:02.268Z,30.17
2023-04-16T17:11:29.448Z,39.33
2023-04-16T17:13:56.113Z,33.92
2023-04-16T17:16:23.988Z,31.65
2023-04-16T17:18:50.963Z,33.95
2023-04-16T17:21:17.737Z,35.85
2023-04-16T17:23:44.434Z,33.47
2023-04-16T17:26:11.338Z,38.08
2023-04-16T17:28:38.089Z,35.50
2023-04-16T17:31:07.210Z,39.95
2023-04-16T17:33:36.841Z,37.53
2023-04-16T17:36:03.753Z,37.22
2023-04-16T17:38:30.552Z,36.50
2023-04-16T17:40:57.822Z,38.75
2023-04-16T17:43:24.551Z,40.25
2023-04-16T17:45:51.252Z,39.38
2023-04-16T17:48:18.315Z,33.80
2023-04-16T17:50:44.981Z,36.65
2023-04-16T17:53:11.698Z,39.05
2023-04-16T17:55:38.362Z,37.20
2023-04-16T17:58:05.060Z,36.60
2023-04-16T18:00:31.695Z,38.28
2023-04-16T18:02:59.779Z,39.10
2023-04-16T18:05:26.740Z,38.65
2023-04-16T18:07:53.738Z,32.90
2023-04-16T18:10:20.537Z,33.75
2023-04-16T18:12:47.263Z,35.78
2023-04-16T18:15:13.928Z,36.60
2023-04-16T18:17:40.702Z,38.00
2023-04-16T18:20:09.287Z,39.95
2023-04-16T18:22:35.960Z,35.75
2023-04-16T18:25:02.615Z,38.25
2023-04-16T18:27:29.967Z,42.28
2023-04-16T18:29:57.085Z,38.33
2023-04-16T18:32:24.241Z,35.80
2023-04-16T18:34:55.528Z,32.08
2023-04-16T18:37:22.391Z,37.15
2023-04-16T18:39:49.121Z,37.03
2023-04-16T18:42:15.787Z,37.53
2023-04-16T18:44:42.443Z,38.33
2023-04-16T18:47:09.068Z,36.75
2023-04-16T18:49:35.762Z,35.45
2023-04-16T18:52:02.439Z,37.08
2023-04-16T18:54:29.166Z,36.42
2023-04-16T18:56:57.313Z,36.88
2023-04-16T18:59:24.896Z,39.58
2023-04-16T19:01:51.740Z,37.22
2023-04-16T19:04:18.535Z,38.20
2023-04-16T19:06:45.775Z,36.30
2023-04-16T19:09:12.923Z,35.78
2023-04-16T19:11:40.478Z,41.60
2023-04-16T19:14:08.364Z,38.90
2023-04-16T19:16:35.506Z,38.50
2023-04-16T19:19:02.251Z,38.63
2023-04-16T19:21:28.863Z,40.13
2023-04-16T19:23:56.010Z,43.58
2023-04-16T19:26:22.716Z,42.78
2023-04-16T19:28:49.313Z,43.97
2023-04-16T19:31:16.526Z,38.60
2023-04-16T19:33:43.341Z,41.28
2023-04-16T19:36:10.157Z,35.85
2023-04-16T19:38:36.823Z,35.97
2023-04-16T19:41:03.486Z,37.55
2023-04-16T19:43:31.131Z,39.28
2023-04-16T19:46:01.216Z,39.85
2023-04-16T19:48:27.973Z,35.83
2023-04-16T19:50:54.856Z,35.42
2023-04-16T19:53:21.899Z,34.80
2023-04-16T19:55:48.727Z,35.15
2023-04-16T19:58:15.464Z,34.03
2023-04-16T20:00:45.204Z,32.80
2023-04-16T20:03:11.937Z,33.10
2023-04-16T20:05:38.648Z,34.72
2023-04-16T20:08:07.813Z,32.25
2023-04-16T20:10:34.580Z,32.92
2023-04-16T20:13:01.725Z,31.60
2023-04-16T20:15:28.395Z,30.35
2023-04-16T20:17:56.302Z,30.27
2023-04-16T20:20:23.807Z,33.45
2023-04-16T20:22:50.944Z,31.75
2023-04-16T20:25:19.360Z,30.60
2023-04-16T20:27:46.346Z,32.08
2023-04-16T20:30:13.771Z,27.88
2023-04-16T20:32:40.717Z,30.92
2023-04-16T20:35:10.806Z,28.20
2023-04-16T20:37:42.398Z,28.00
2023-04-16T20:40:09.743Z,26.48
2023-04-16T20:42:36.503Z,26.42
2023-04-16T20:45:03.272Z,28.65
2023-04-16T20:47:29.932Z,27.92
2023-04-16T20:49:56.555Z,27.25
2023-04-16T20:52:23.202Z,26.20
2023-04-16T20:54:52.165Z,28.30
2023-04-16T20:57:18.998Z,23.88
2023-04-16T20:59:46.328Z,21.30
2023-04-16T21:02:13.260Z,23.63
2023-04-16T21:04:40.285Z,24.50
2023-04-16T21:07:07.374Z,22.70
2023-04-16T21:09:34.049Z,23.40
2023-04-16T21:12:01.604Z,22.42
2023-04-16T21:14:28.240Z,21.27
2023-04-16T21:16:55.036Z,21.33
2023-04-16T21:19:22.654Z,24.00
2023-04-16T21:21:49.467Z,25.08
2023-04-16T21:24:16.840Z,21.90
2023-04-16T21:26:43.455Z,20.90
2023-04-16T21:29:10.282Z,22.13
2023-04-16T21:31:37.190Z,23.35
2023-04-16T21:34:04.052Z,24.98
2023-04-16T21:36:32.117Z,22.42
2023-04-16T21:38:58.942Z,23.02
2023-04-16T21:41:25.814Z,22.50
2023-04-16T21:43:52.478Z,20.42
2023-04-16T21:46:19.302Z,21.23
2023-04-16T21:48:46.339Z,20.60
2023-04-16T21:51:14.152Z,20.92
2023-04-16T21:53:40.934Z,22.23
2023-04-16T21:56:08.322Z,21.65
2023-04-16T21:58:35.076Z,20.90
2023-04-16T22:01:01.868Z,21.00
2023-04-16T22:03:31.132Z,22.02
2023-04-16T22:06:01.667Z,24.48
2023-04-16T22:08:29.276Z,22.10
2023-04-16T22:11:01.592Z,21.75
2023-04-16T22:13:32.759Z,21.08
2023-04-16T22:16:02.514Z,20.42
2023-04-16T22:18:33.191Z,19.88
2023-04-16T22:21:00.486Z,20.73
2023-04-16T22:23:27.225Z,21.23
2023-04-16T22:25:55.456Z,20.30
2023-04-16T22:28:22.385Z,19.92
2023-04-16T22:30:49.800Z,19.58
2023-04-16T22:33:16.559Z,19.10
2023-04-16T22:35:43.330Z,18.92
2023-04-16T22:38:10.479Z,19.40
2023-04-16T22:40:37.328Z,20.75
2023-04-16T22:43:04.205Z,18.67
2023-04-16T22:45:31.016Z,20.92
2023-04-16T22:47:57.848Z,19.55
2023-04-16T22:50:24.563Z,20.23
2023-04-16T22:52:51.235Z,20.02
2023-04-16T22:55:18.215Z,22.00
2023-04-16T22:57:44.914Z,20.70
2023-04-16T23:00:16.337Z,20.17
2023-04-16T23:02:46.088Z,19.00
2023-04-16T23:05:12.915Z,18.70
2023-04-16T23:07:39.683Z,21.77
2023-04-16T23:10:08.524Z,21.48
2023-04-16T23:12:37.677Z,20.02
2023-04-16T23:15:06.914Z,20.23
2023-04-16T23:17:35.337Z,20.83
2023-04-16T23:20:02.418Z,20.85
2023-04-16T23:22:29.459Z,18.75
2023-04-16T23:24:56.157Z,17.77
2023-04-16T23:27:23.016Z,19.23
2023-04-16T23:29:49.963Z,20.52
2023-04-16T23:32:17.014Z,18.85
2023-04-16T23:34:47.080Z,19.17
2023-04-16T23:37:13.860Z,20.83
2023-04-16T23:39:41.170Z,19.45
2023-04-16T23:42:07.807Z,18.98
2023-04-16T23:44:34.521Z,19.20
2023-04-16T23:47:01.266Z,20.23
2023-04-16T23:49:28.151Z,19.98
2023-04-16T23:51:54.824Z,19.88
2023-04-16T23:54:21.535Z,21.52
2023-04-16T23:56:48.343Z,22.00
2023-04-16T23:59:15.134Z,19.85
